Terminal Aerodrome Forecast
Issued by NWS

Home | Current Version | Previous Version | Text Only | Print | Product List | Glossary On
Versions: 1 2 3 4 5 6 7 8 9 10 11 12 13 14 15 16 17 18 19 20 21 22 23 24 25 26 27 28 29 30 31 32 33 34 35 36 37 38 39 40 41 42 43 44 45 46 47 48 49 50
000
FTUS45 KBOU 280748 AAA
TAFBJC
TAF AMD
KBJC 280748Z 2808/2906 27015G25KT P6SM SCT140 BKN200
      TEMPO 2808/2811 28025G35KT
     FM281200 29012G20KT P6SM BKN120 BKN200
     FM281700 32012KT P6SM BKN120 BKN180
     FM282200 32015KT P6SM BKN120 BKN180
     FM290100 35008KT P6SM BKN120 BKN180
     FM290300 06005KT P6SM SCT100 BKN150=

USA.gov is the U.S. government's official web portal to all federal, state and local government web resources and services.